Time;durP1;ratioP1;P1;durP2;ratioP2;P2;SDS_P1;SDS_P2;PMS_P1;PMS_P2;Temp;Humidity;BMP_temperature;BMP_pressure;BME280_temperature;BME280_humidity;BME280_pressure;Samples;Min_cycle;Max_cycle;Signal;HPM_P1;HPM_P2
2021/12/14 00:00:28;;;;;;;21.88;13.43;;;8.70;99.90;;;;;;5082527;28;20130;-82
2021/12/14 00:02:54;;;;;;;25.10;13.68;;;8.40;99.90;;;;;;5066486;28;20088;-82
2021/12/14 00:05:22;;;;;;;27.70;14.20;;;8.30;99.90;;;;;;5070536;28;20048;-83
2021/12/14 00:07:49;;;;;;;25.00;13.90;;;8.30;99.90;;;;;;5079335;28;20123;-82
2021/12/14 00:10:42;;;;;;;25.92;13.70;;;8.30;99.90;;;;;;5080454;28;20051;-82
2021/12/14 00:13:41;;;;;;;23.27;13.77;;;8.30;99.90;;;;;;5071610;28;20071;-82
2021/12/14 00:16:09;;;;;;;22.73;13.65;;;8.30;99.90;;;;;;5063687;28;20090;-82
2021/12/14 00:18:34;;;;;;;23.65;14.68;;;8.30;99.90;;;;;;5092701;28;20780;-82
2021/12/14 00:21:19;;;;;;;26.88;13.57;;;8.30;99.90;;;;;;5090355;28;20051;-82
2021/12/14 00:26:49;;;;;;;23.70;14.10;;;8.30;99.90;;;;;;5080310;28;20044;-82
2021/12/14 00:29:37;;;;;;;22.90;13.90;;;8.30;99.90;;;;;;5065722;28;20415;-82
2021/12/14 00:32:08;;;;;;;24.50;13.50;;;8.40;99.90;;;;;;5066637;28;20044;-83
2021/12/14 00:34:38;;;;;;;20.10;13.25;;;8.30;99.90;;;;;;5064129;28;20060;-82
2021/12/14 00:37:07;;;;;;;22.75;12.95;;;8.20;99.90;;;;;;5073831;28;20517;-83
2021/12/14 00:39:33;;;;;;;22.75;13.60;;;8.30;99.90;;;;;;5074790;28;20079;-83
2021/12/14 00:41:59;;;;;;;23.35;13.25;;;8.30;99.90;;;;;;5090137;28;20159;-83
2021/12/14 00:44:25;;;;;;;24.92;12.60;;;8.30;99.90;;;;;;5064556;28;20095;-82
2021/12/14 00:46:51;;;;;;;22.45;12.82;;;8.20;99.90;;;;;;5073740;28;20063;-83
2021/12/14 00:49:17;;;;;;;21.27;13.32;;;8.00;99.90;;;;;;5074137;28;20036;-82
2021/12/14 00:51:44;;;;;;;19.92;13.00;;;8.30;99.90;;;;;;5072665;28;20508;-82
2021/12/14 00:54:13;;;;;;;20.80;13.38;;;8.20;99.90;;;;;;5092927;28;20048;-83
2021/12/14 00:56:40;;;;;;;23.27;14.07;;;8.40;99.90;;;;;;5071170;28;20097;-83
2021/12/14 00:59:08;;;;;;;21.85;13.18;;;8.30;99.90;;;;;;5070288;28;20047;-83
2021/12/14 01:01:43;;;;;;;23.02;14.23;;;8.20;99.90;;;;;;5070994;28;20058;-83
2021/12/14 01:04:52;;;;;;;21.33;12.90;;;8.20;99.90;;;;;;5076070;28;20044;-82
2021/12/14 01:07:21;;;;;;;22.60;13.18;;;8.20;99.90;;;;;;5059764;28;20644;-84
2021/12/14 01:09:51;;;;;;;21.58;13.60;;;8.90;99.90;;;;;;5080929;28;20047;-83
2021/12/14 01:12:32;;;;;;;25.05;14.25;;;8.20;99.90;;;;;;5069587;28;20085;-83
2021/12/14 01:15:25;;;;;;;23.88;13.00;;;8.20;99.90;;;;;;5091135;28;20040;-83
2021/12/14 01:18:01;;;;;;;23.40;14.30;;;8.20;99.90;;;;;;5092075;28;20111;-83
2021/12/14 01:20:35;;;;;;;21.30;14.15;;;8.20;99.90;;;;;;5071121;28;20036;-83
2021/12/14 01:23:12;;;;;;;26.52;14.63;;;8.20;99.90;;;;;;5091834;28;20047;-84
2021/12/14 01:25:39;;;;;;;22.20;14.05;;;8.20;99.90;;;;;;5068105;28;20072;-83
2021/12/14 01:28:15;;;;;;;22.92;13.57;;;8.20;99.90;;;;;;5074558;28;20042;-83
2021/12/14 01:33:32;;;;;;;22.02;13.63;;;8.20;99.90;;;;;;5091330;28;20408;-83
2021/12/14 01:36:00;;;;;;;21.60;13.95;;;8.20;99.90;;;;;;5091380;28;20564;-83
2021/12/14 01:40:58;;;;;;;23.67;14.45;;;8.20;99.90;;;;;;5095265;28;20071;-82
2021/12/14 01:43:46;;;;;;;26.40;14.57;;;8.20;99.90;;;;;;5070728;28;20102;-83
2021/12/14 01:46:23;;;;;;;22.10;14.18;;;8.20;99.90;;;;;;5089362;28;20887;-84
2021/12/14 01:48:50;;;;;;;28.95;15.35;;;8.20;99.90;;;;;;5076291;28;20047;-83
2021/12/14 01:51:17;;;;;;;22.73;14.35;;;8.20;99.90;;;;;;5073046;28;20036;-83
2021/12/14 01:53:45;;;;;;;27.52;15.20;;;8.20;99.90;;;;;;5098458;28;20048;-84
2021/12/14 01:56:14;;;;;;;23.08;14.20;;;8.20;99.90;;;;;;5100104;28;20043;-84
2021/12/14 01:58:45;;;;;;;23.17;15.00;;;8.20;99.90;;;;;;5069164;28;20470;-83
2021/12/14 02:01:23;;;;;;;26.60;15.13;;;8.20;99.90;;;;;;5085903;28;20059;-83
2021/12/14 02:04:00;;;;;;;24.02;16.23;;;8.20;99.90;;;;;;5078048;28;20164;-83
2021/12/14 02:06:32;;;;;;;28.83;16.75;;;8.50;99.90;;;;;;5091531;28;20044;-84
2021/12/14 02:09:10;;;;;;;31.65;16.92;;;8.20;99.90;;;;;;5089124;28;20385;-83
2021/12/14 02:11:42;;;;;;;27.50;16.40;;;8.20;99.90;;;;;;5070290;28;20048;-83
2021/12/14 02:14:08;;;;;;;25.45;17.08;;;8.20;99.90;;;;;;5085205;28;20785;-84
2021/12/14 02:16:34;;;;;;;24.63;16.67;;;8.20;99.90;;;;;;5093625;28;20039;-84
2021/12/14 02:19:09;;;;;;;26.15;16.35;;;8.20;99.90;;;;;;5076218;28;20058;-83
2021/12/14 02:21:37;;;;;;;31.35;18.20;;;8.20;99.90;;;;;;5103457;28;20059;-84
2021/12/14 02:24:06;;;;;;;29.58;17.67;;;8.60;99.90;;;;;;5088314;28;20047;-83
2021/12/14 02:26:35;;;;;;;29.08;18.38;;;8.20;99.90;;;;;;5074049;28;20040;-83
2021/12/14 02:29:04;;;;;;;29.88;17.70;;;8.10;99.90;;;;;;5072430;28;20058;-83
2021/12/14 02:31:31;;;;;;;30.52;17.75;;;8.80;99.90;;;;;;5092130;28;20051;-83
2021/12/14 02:33:59;;;;;;;28.60;18.17;;;8.30;99.90;;;;;;5084317;28;20397;-83
2021/12/14 02:36:31;;;;;;;33.38;18.73;;;8.10;99.90;;;;;;5089172;28;20042;-84
2021/12/14 02:39:08;;;;;;;31.50;18.35;;;8.10;99.90;;;;;;5082523;28;20043;-83
2021/12/14 02:41:45;;;;;;;30.55;18.77;;;8.10;99.90;;;;;;5080791;28;20056;-83
2021/12/14 02:44:12;;;;;;;27.50;18.63;;;8.10;99.90;;;;;;5070001;28;20040;-84
2021/12/14 02:46:43;;;;;;;31.20;19.67;;;8.10;99.90;;;;;;5087124;28;20105;-83
2021/12/14 02:49:14;;;;;;;30.98;19.58;;;8.10;99.90;;;;;;5090216;28;20036;-85
2021/12/14 02:51:47;;;;;;;32.08;19.17;;;8.40;99.90;;;;;;5071651;28;20040;-84
2021/12/14 02:54:36;;;;;;;31.95;19.92;;;8.00;99.90;;;;;;5089757;28;20088;-83
2021/12/14 02:57:16;;;;;;;27.70;18.13;;;8.10;99.90;;;;;;5081099;28;20043;-83
2021/12/14 02:59:44;;;;;;;28.85;19.95;;;8.10;99.90;;;;;;5071777;28;20043;-83
2021/12/14 03:02:17;;;;;;;30.50;19.05;;;8.10;99.90;;;;;;5080150;28;20051;-83
2021/12/14 03:04:50;;;;;;;31.42;18.80;;;8.10;99.90;;;;;;5098426;28;20461;-84
2021/12/14 03:07:21;;;;;;;29.45;19.55;;;8.30;99.90;;;;;;5075814;28;20403;-83
2021/12/14 03:09:57;;;;;;;31.35;20.23;;;8.10;99.90;;;;;;5071853;28;20055;-83
2021/12/14 03:12:39;;;;;;;31.52;19.90;;;8.10;99.90;;;;;;5079776;28;20758;-84
2021/12/14 03:15:22;;;;;;;32.95;20.30;;;8.00;99.90;;;;;;5079836;28;20054;-83
2021/12/14 03:17:51;;;;;;;32.63;20.45;;;8.00;99.90;;;;;;5085075;28;20420;-83
2021/12/14 03:20:25;;;;;;;33.38;20.83;;;8.00;99.90;;;;;;5069907;28;20032;-83
2021/12/14 03:22:59;;;;;;;34.88;20.95;;;8.10;99.90;;;;;;5069131;28;20051;-83
2021/12/14 03:25:26;;;;;;;31.90;19.95;;;8.10;99.90;;;;;;5073607;28;20079;-84
2021/12/14 03:27:52;;;;;;;33.65;20.95;;;8.10;99.90;;;;;;5088164;28;20054;-84
2021/12/14 03:30:27;;;;;;;32.03;21.27;;;8.00;99.90;;;;;;5088339;28;20032;-84
2021/12/14 03:33:05;;;;;;;34.15;22.50;;;8.00;99.90;;;;;;5100357;28;20044;-83
2021/12/14 03:35:44;;;;;;;35.95;22.17;;;8.00;99.90;;;;;;5070690;28;20070;-83
2021/12/14 03:38:36;;;;;;;38.85;22.20;;;8.00;99.90;;;;;;5088626;28;20054;-83
2021/12/14 03:41:07;;;;;;;32.20;21.67;;;7.70;99.90;;;;;;5105619;28;20067;-83
2021/12/14 03:43:37;;;;;;;40.97;20.63;;;8.10;99.90;;;;;;5072189;28;20419;-83
2021/12/14 03:46:04;;;;;;;32.38;21.45;;;8.10;99.90;;;;;;5069775;28;20102;-83
2021/12/14 03:48:31;;;;;;;33.15;21.17;;;8.10;99.90;;;;;;5091726;28;20078;-83
2021/12/14 03:50:57;;;;;;;34.63;21.92;;;8.10;99.90;;;;;;5082616;28;20067;-83
2021/12/14 03:53:23;;;;;;;36.25;23.25;;;8.00;99.90;;;;;;5070246;28;20047;-84
2021/12/14 03:55:54;;;;;;;35.80;22.40;;;8.10;99.90;;;;;;5063677;28;20381;-83
2021/12/14 03:58:30;;;;;;;38.00;22.73;;;8.10;99.90;;;;;;5083663;28;20531;-83
2021/12/14 04:01:03;;;;;;;32.97;22.23;;;8.10;99.90;;;;;;5065309;28;20039;-83
2021/12/14 04:03:30;;;;;;;35.83;22.27;;;8.10;99.90;;;;;;5068903;28;20042;-83
2021/12/14 04:05:57;;;;;;;39.55;22.90;;;8.00;99.90;;;;;;5066482;28;20071;-84
2021/12/14 04:08:24;;;;;;;33.80;21.42;;;8.10;99.90;;;;;;5065924;28;20091;-83
2021/12/14 04:10:52;;;;;;;38.63;23.50;;;8.00;99.90;;;;;;5081067;28;20048;-83
2021/12/14 04:13:21;;;;;;;35.67;22.05;;;8.10;99.90;;;;;;5088878;28;20059;-83
2021/12/14 04:15:48;;;;;;;34.53;22.35;;;8.10;99.90;;;;;;5084817;28;20097;-83
2021/12/14 04:18:14;;;;;;;36.15;22.83;;;8.10;99.90;;;;;;5065777;28;20040;-83
2021/12/14 04:20:42;;;;;;;35.50;22.55;;;8.10;99.90;;;;;;5067382;28;20051;-83
2021/12/14 04:23:16;;;;;;;38.33;23.83;;;8.10;99.90;;;;;;5071628;28;20470;-83
2021/12/14 04:25:43;;;;;;;33.83;22.73;;;8.10;99.90;;;;;;5091592;28;20043;-83
2021/12/14 04:28:13;;;;;;;40.63;23.20;;;8.30;99.90;;;;;;5081473;28;20108;-83
2021/12/14 04:30:40;;;;;;;38.53;24.35;;;8.10;99.90;;;;;;5079388;28;20039;-83
2021/12/14 04:33:10;;;;;;;33.05;22.30;;;8.10;99.90;;;;;;5072698;28;20092;-83
2021/12/14 04:35:38;;;;;;;43.60;24.70;;;8.20;99.90;;;;;;5075652;28;20056;-83
2021/12/14 04:38:13;;;;;;;42.17;22.83;;;8.20;99.90;;;;;;5099201;28;20036;-83
2021/12/14 04:51:59;;;;;;;40.60;23.73;;;8.00;99.90;;;;;;5097004;28;20077;-84
2021/12/14 04:54:33;;;;;;;42.80;23.83;;;7.80;99.90;;;;;;5071614;28;20035;-84
2021/12/14 04:57:00;;;;;;;40.70;25.35;;;8.00;99.90;;;;;;5083241;28;20134;-83
2021/12/14 04:59:29;;;;;;;41.35;24.40;;;8.10;99.90;;;;;;5086318;28;20040;-84
2021/12/14 05:02:04;;;;;;;40.67;23.77;;;8.70;99.90;;;;;;5081712;28;20244;-83
2021/12/14 05:04:32;;;;;;;38.28;24.58;;;8.00;99.90;;;;;;5082043;28;20385;-84
2021/12/14 05:07:26;;;;;;;43.03;24.95;;;8.00;99.90;;;;;;5074518;28;20060;-83
2021/12/14 05:09:51;;;;;;;40.25;24.30;;;8.00;99.90;;;;;;5087470;28;20803;-83
2021/12/14 05:12:20;;;;;;;40.88;24.48;;;8.00;99.90;;;;;;5089916;28;20432;-83
2021/12/14 05:14:47;;;;;;;41.78;24.95;;;8.00;99.90;;;;;;5088620;28;20670;-84
2021/12/14 05:17:21;;;;;;;41.85;24.52;;;8.40;99.90;;;;;;5089117;28;20071;-83
2021/12/14 05:19:48;;;;;;;43.38;25.38;;;8.00;99.90;;;;;;5092736;28;20446;-84
2021/12/14 05:22:22;;;;;;;41.20;25.52;;;8.00;99.90;;;;;;5072831;28;20059;-84
2021/12/14 05:24:53;;;;;;;40.60;25.60;;;8.00;99.90;;;;;;5074177;28;20050;-83
2021/12/14 05:27:31;;;;;;;46.00;25.30;;;8.00;99.90;;;;;;5081072;28;20420;-83
2021/12/14 05:30:15;;;;;;;42.38;23.92;;;8.00;99.90;;;;;;5075063;28;20035;-83
2021/12/14 05:32:41;;;;;;;47.33;25.58;;;8.00;99.90;;;;;;5075597;28;20048;-83
2021/12/14 05:35:10;;;;;;;41.88;25.73;;;8.00;99.90;;;;;;5078281;28;20039;-84
2021/12/14 05:37:45;;;;;;;43.50;25.63;;;7.90;99.90;;;;;;5084131;28;20692;-83
2021/12/14 05:40:23;;;;;;;47.67;27.42;;;7.90;99.90;;;;;;5082400;28;20138;-83
2021/12/14 05:43:07;;;;;;;43.92;25.63;;;7.90;99.90;;;;;;5079435;28;20056;-83
2021/12/14 05:45:46;;;;;;;43.28;25.00;;;8.00;99.90;;;;;;5078362;28;20044;-83
2021/12/14 05:48:19;;;;;;;45.15;27.48;;;7.90;99.90;;;;;;5077210;28;20040;-83
2021/12/14 05:50:56;;;;;;;41.10;25.60;;;7.90;99.90;;;;;;5080565;28;20074;-84
2021/12/14 05:53:34;;;;;;;47.63;27.23;;;7.90;99.90;;;;;;5096914;28;20047;-83
2021/12/14 05:56:05;;;;;;;45.13;25.98;;;8.30;99.90;;;;;;5107489;27;20110;-83
2021/12/14 05:58:31;;;;;;;43.53;26.10;;;7.90;99.90;;;;;;5097516;27;20590;-84
2021/12/14 06:01:06;;;;;;;47.53;26.80;;;7.90;99.90;;;;;;5092691;28;20032;-83
2021/12/14 06:03:38;;;;;;;44.63;25.33;;;7.90;99.90;;;;;;5076922;28;20039;-82
2021/12/14 06:06:12;;;;;;;44.78;28.13;;;7.90;99.90;;;;;;5079549;28;20475;-83
2021/12/14 06:08:37;;;;;;;44.55;26.98;;;8.50;99.90;;;;;;5086322;28;20415;-83
2021/12/14 06:11:03;;;;;;;47.40;27.95;;;8.20;99.90;;;;;;5069320;28;20469;-83
2021/12/14 06:13:39;;;;;;;49.42;28.45;;;8.60;99.90;;;;;;5055928;28;20046;-82
2021/12/14 06:16:05;;;;;;;46.83;27.67;;;7.90;99.90;;;;;;5083949;28;20095;-84
2021/12/14 06:18:31;;;;;;;47.15;29.52;;;7.90;99.90;;;;;;5079825;28;20043;-83
2021/12/14 06:20:57;;;;;;;43.38;27.33;;;7.90;99.90;;;;;;5066205;28;20137;-82
2021/12/14 06:23:25;;;;;;;48.60;27.60;;;7.90;99.90;;;;;;5097833;28;20035;-83
2021/12/14 06:25:51;;;;;;;48.72;28.42;;;7.90;99.90;;;;;;5068715;28;20044;-83
2021/12/14 06:28:28;;;;;;;50.00;27.80;;;8.00;99.90;;;;;;5101596;28;20044;-83
2021/12/14 06:30:56;;;;;;;52.03;30.65;;;7.90;99.90;;;;;;5084503;28;20047;-82
2021/12/14 06:33:22;;;;;;;48.75;29.27;;;7.90;99.90;;;;;;5069306;28;20040;-83
2021/12/14 06:35:51;;;;;;;50.03;28.95;;;7.90;99.90;;;;;;5067672;28;20047;-82
2021/12/14 06:38:28;;;;;;;50.00;29.23;;;7.90;99.90;;;;;;5084678;28;20044;-83
2021/12/14 06:41:10;;;;;;;50.38;29.85;;;8.00;99.90;;;;;;5097159;27;20496;-83
2021/12/14 06:43:42;;;;;;;48.45;28.75;;;7.90;99.90;;;;;;5090849;27;20043;-83
2021/12/14 06:46:12;;;;;;;54.13;29.40;;;7.90;99.90;;;;;;5079397;28;20048;-83
2021/12/14 06:48:59;;;;;;;51.92;31.58;;;8.00;99.90;;;;;;5070135;27;20044;-84
2021/12/14 06:51:34;;;;;;;52.65;30.00;;;7.90;99.90;;;;;;5083595;27;20048;-84
2021/12/14 06:54:12;;;;;;;48.58;28.52;;;8.00;99.90;;;;;;5089767;27;20043;-83
2021/12/14 06:56:39;;;;;;;52.28;29.95;;;8.00;99.90;;;;;;5091735;28;20491;-83
2021/12/14 06:59:11;;;;;;;50.63;29.75;;;8.00;99.90;;;;;;5070646;27;20069;-83
2021/12/14 07:01:49;;;;;;;56.45;31.60;;;8.00;99.90;;;;;;5071715;27;20062;-83
2021/12/14 07:04:24;;;;;;;54.28;30.10;;;8.00;99.90;;;;;;5088339;28;20096;-83
2021/12/14 07:06:58;;;;;;;52.97;29.20;;;8.00;99.90;;;;;;5093870;28;20036;-82
2021/12/14 07:09:31;;;;;;;56.30;31.45;;;8.10;99.90;;;;;;5070438;27;20050;-83
2021/12/14 07:12:04;;;;;;;57.97;31.63;;;8.00;99.90;;;;;;5102561;27;20648;-83
2021/12/14 07:14:43;;;;;;;52.40;30.83;;;8.00;99.90;;;;;;5088242;27;20047;-84
2021/12/14 07:17:18;;;;;;;53.58;31.23;;;8.00;99.90;;;;;;5073782;28;20074;-83
2021/12/14 07:19:52;;;;;;;57.20;31.00;;;7.90;99.90;;;;;;5072231;27;20049;-83
2021/12/14 07:22:30;;;;;;;58.75;31.88;;;8.00;99.90;;;;;;5086028;27;20487;-83
2021/12/14 07:25:21;;;;;;;58.55;30.55;;;8.20;99.90;;;;;;5083389;28;20054;-83
2021/12/14 07:27:57;;;;;;;57.78;32.20;;;8.00;99.90;;;;;;5088236;27;20059;-85
2021/12/14 07:30:25;;;;;;;59.67;30.52;;;8.00;99.90;;;;;;5081887;27;20039;-83
2021/12/14 07:32:59;;;;;;;54.05;29.83;;;7.90;99.90;;;;;;5096020;27;20056;-83
2021/12/14 07:35:39;;;;;;;56.92;31.48;;;8.00;99.90;;;;;;5087743;27;20043;-83
2021/12/14 07:38:16;;;;;;;63.47;33.92;;;8.00;99.90;;;;;;5074050;27;20044;-83
2021/12/14 07:40:47;;;;;;;60.10;32.67;;;8.30;99.90;;;;;;5066119;28;20515;-84
2021/12/14 07:43:24;;;;;;;59.83;32.85;;;8.00;99.90;;;;;;5071948;28;20132;-83
2021/12/14 07:45:52;;;;;;;65.32;32.92;;;8.00;99.90;;;;;;5082606;28;20059;-84
2021/12/14 07:48:38;;;;;;;67.00;33.85;;;8.00;99.90;;;;;;5062439;28;20048;-84
2021/12/14 07:51:03;;;;;;;64.13;33.35;;;7.90;99.90;;;;;;5066085;28;20483;-83
2021/12/14 07:53:44;;;;;;;64.45;33.15;;;8.00;99.90;;;;;;5068973;28;20040;-84
2021/12/14 07:56:25;;;;;;;67.18;33.85;;;8.00;99.90;;;;;;5072234;28;20036;-83
2021/12/14 07:58:51;;;;;;;58.65;31.38;;;8.00;99.90;;;;;;5081554;28;20051;-84
2021/12/14 08:01:17;;;;;;;72.03;36.38;;;8.00;99.90;;;;;;5064087;28;20044;-84
2021/12/14 08:03:43;;;;;;;71.10;34.15;;;8.00;99.90;;;;;;5080894;28;20044;-83
2021/12/14 08:06:13;;;;;;;62.17;33.60;;;8.00;99.90;;;;;;5067498;28;20036;-84
2021/12/14 08:08:54;;;;;;;73.00;35.55;;;8.00;99.90;;;;;;5086769;28;20054;-84
2021/12/14 08:14:15;;;;;;;66.63;33.63;;;8.00;99.90;;;;;;5079378;28;20062;-84
2021/12/14 08:17:06;;;;;;;71.88;34.33;;;8.10;99.90;;;;;;5070348;28;20039;-83
2021/12/14 08:19:42;;;;;;;66.07;33.00;;;8.30;99.90;;;;;;5066463;28;20047;-84
2021/12/14 08:22:23;;;;;;;69.60;33.47;;;8.30;99.90;;;;;;5066053;28;20302;-83
2021/12/14 08:24:49;;;;;;;73.88;33.10;;;8.10;99.90;;;;;;5065409;28;20051;-83
2021/12/14 08:27:20;;;;;;;65.72;34.00;;;8.10;99.90;;;;;;5082195;28;20036;-83
2021/12/14 08:29:50;;;;;;;68.70;34.25;;;8.10;99.90;;;;;;5066671;28;20063;-83
2021/12/14 08:32:22;;;;;;;69.13;35.30;;;8.10;99.90;;;;;;5065945;28;20045;-83
2021/12/14 08:34:50;;;;;;;66.85;34.03;;;8.10;99.90;;;;;;5071038;28;20051;-83
2021/12/14 08:37:18;;;;;;;72.70;34.90;;;8.10;99.90;;;;;;5064873;28;20515;-83
2021/12/14 08:39:57;;;;;;;69.88;33.95;;;8.40;99.90;;;;;;5080732;28;20040;-82
2021/12/14 08:42:34;;;;;;;65.60;34.05;;;8.20;99.90;;;;;;5066263;28;20051;-83
2021/12/14 08:45:24;;;;;;;71.65;34.03;;;8.20;99.90;;;;;;5062592;28;20044;-83
2021/12/14 08:47:55;;;;;;;64.20;32.03;;;8.20;99.90;;;;;;5083854;28;20657;-84
2021/12/14 08:50:21;;;;;;;66.65;33.50;;;8.20;99.90;;;;;;5067276;28;20032;-83
2021/12/14 08:52:47;;;;;;;72.38;35.22;;;8.40;99.90;;;;;;5087203;28;20058;-83
2021/12/14 08:55:15;;;;;;;70.53;32.97;;;8.20;99.90;;;;;;5084554;28;20032;-83
2021/12/14 08:57:41;;;;;;;68.93;33.72;;;8.20;99.90;;;;;;5067978;28;20048;-83
2021/12/14 09:00:19;;;;;;;63.90;33.03;;;8.20;99.90;;;;;;5083334;28;20036;-84
2021/12/14 09:02:46;;;;;;;69.28;33.40;;;8.20;99.90;;;;;;5069173;28;20094;-84
2021/12/14 09:05:23;;;;;;;71.55;33.70;;;8.20;99.90;;;;;;5070373;28;20542;-83
2021/12/14 09:07:49;;;;;;;66.00;33.13;;;8.20;99.90;;;;;;5081172;28;20576;-84
2021/12/14 09:10:20;;;;;;;71.28;33.65;;;8.30;99.90;;;;;;5081989;28;20031;-83
2021/12/14 09:12:49;;;;;;;73.07;33.28;;;8.30;99.90;;;;;;5067662;28;20060;-83
2021/12/14 09:15:20;;;;;;;74.10;34.65;;;8.30;99.90;;;;;;5082134;28;20047;-83
2021/12/14 09:17:47;;;;;;;71.60;33.30;;;8.30;99.90;;;;;;5081967;28;20050;-83
2021/12/14 09:20:31;;;;;;;63.22;32.85;;;8.30;99.90;;;;;;5071574;28;20040;-83
2021/12/14 09:23:06;;;;;;;68.82;33.78;;;8.30;99.90;;;;;;5082074;28;20454;-83
2021/12/14 09:25:33;;;;;;;72.63;33.33;;;8.40;99.90;;;;;;5070560;28;20399;-83
2021/12/14 09:28:01;;;;;;;61.85;32.08;;;8.40;99.90;;;;;;5072996;28;20532;-83
2021/12/14 09:30:30;;;;;;;69.97;33.95;;;8.50;99.90;;;;;;5085344;28;20130;-83
2021/12/14 09:32:56;;;;;;;71.30;34.00;;;8.40;99.90;;;;;;5068006;28;20071;-83
2021/12/14 09:35:25;;;;;;;68.13;34.10;;;8.40;99.90;;;;;;5068338;28;20036;-83
2021/12/14 09:37:54;;;;;;;71.47;34.08;;;8.50;99.90;;;;;;5073436;28;20455;-83
2021/12/14 09:40:35;;;;;;;81.55;35.05;;;8.50;99.90;;;;;;5085289;28;20393;-84
2021/12/14 09:43:04;;;;;;;66.25;33.25;;;8.90;99.90;;;;;;5087486;28;20131;-83
2021/12/14 09:45:39;;;;;;;74.38;36.55;;;8.50;99.90;;;;;;5086994;28;20044;-84
2021/12/14 09:48:05;;;;;;;67.03;32.72;;;8.50;99.90;;;;;;5078561;28;20090;-84
2021/12/14 09:50:37;;;;;;;69.15;32.72;;;8.50;99.90;;;;;;5067363;28;20093;-84
2021/12/14 09:53:06;;;;;;;66.28;31.58;;;8.50;99.90;;;;;;5079522;28;20570;-85
2021/12/14 09:55:35;;;;;;;76.35;33.42;;;8.50;99.90;;;;;;5069039;28;20039;-86
2021/12/14 09:58:10;;;;;;;66.18;32.83;;;8.90;99.90;;;;;;5085945;28;20051;-85
2021/12/14 10:00:45;;;;;;;63.63;32.10;;;8.50;99.90;;;;;;5069883;28;20134;-85
2021/12/14 10:03:13;;;;;;;71.70;33.10;;;8.50;99.90;;;;;;5083607;28;20121;-84
2021/12/14 10:05:52;;;;;;;76.18;34.85;;;8.50;99.90;;;;;;5085487;28;20082;-86
2021/12/14 10:08:24;;;;;;;73.30;34.53;;;8.50;99.90;;;;;;5070680;28;20035;-84
2021/12/14 10:11:05;;;;;;;77.45;34.97;;;8.40;99.90;;;;;;5084515;28;20055;-85
2021/12/14 10:13:33;;;;;;;72.80;35.47;;;8.50;99.90;;;;;;5081069;28;20082;-84
2021/12/14 10:16:00;;;;;;;67.68;32.47;;;8.50;99.90;;;;;;5077129;28;20043;-84
2021/12/14 10:18:37;;;;;;;71.57;34.10;;;8.70;99.90;;;;;;5079994;28;20040;-85
2021/12/14 10:21:15;;;;;;;65.82;32.75;;;8.50;99.90;;;;;;5078473;28;20136;-85
2021/12/14 10:23:43;;;;;;;75.78;33.47;;;8.50;99.90;;;;;;5080281;28;20040;-86
2021/12/14 10:26:12;;;;;;;63.10;29.05;;;8.50;99.90;;;;;;5076068;28;20598;-84
2021/12/14 10:28:45;;;;;;;72.57;31.42;;;8.50;99.90;;;;;;5070044;28;20062;-84
2021/12/14 10:31:18;;;;;;;70.88;33.95;;;8.60;99.90;;;;;;5075545;28;20432;-83
2021/12/14 10:33:45;;;;;;;71.32;31.40;;;8.40;99.90;;;;;;5062161;28;20040;-84
2021/12/14 10:36:25;;;;;;;61.95;31.85;;;8.50;99.90;;;;;;5078363;28;20040;-84
2021/12/14 10:44:49;;;;;;;71.60;33.30;;;8.50;99.90;;;;;;5001793;28;20053;-84
2021/12/14 10:47:17;;;;;;;68.80;30.58;;;8.60;99.90;;;;;;5046661;28;20361;-84
2021/12/14 10:49:44;;;;;;;71.53;32.28;;;8.50;99.90;;;;;;5065002;28;20115;-84
2021/12/14 10:52:14;;;;;;;74.35;31.52;;;8.60;99.90;;;;;;5064095;28;20091;-85
2021/12/14 10:54:43;;;;;;;69.13;30.60;;;8.60;99.90;;;;;;5079159;28;20086;-84
2021/12/14 10:57:12;;;;;;;69.32;30.45;;;8.60;99.90;;;;;;5068833;28;20150;-84
2021/12/14 10:59:43;;;;;;;68.68;32.80;;;8.60;99.90;;;;;;5063643;28;20035;-84
2021/12/14 11:02:10;;;;;;;61.22;29.23;;;9.40;99.90;;;;;;5061987;28;20078;-84
2021/12/14 11:04:53;;;;;;;62.60;31.50;;;8.70;99.90;;;;;;5061135;28;20077;-85
2021/12/14 11:07:38;;;;;;;63.28;29.95;;;9.20;99.90;;;;;;5079158;28;20523;-83
2021/12/14 11:10:07;;;;;;;58.15;28.67;;;8.90;99.90;;;;;;5068110;28;20062;-83
2021/12/14 11:12:38;;;;;;;61.30;28.55;;;8.70;99.90;;;;;;5073014;28;20055;-83
2021/12/14 11:15:15;;;;;;;61.05;28.45;;;8.80;99.90;;;;;;5062966;28;20178;-83
2021/12/14 11:20:36;;;;;;;52.10;26.70;;;8.80;99.90;;;;;;5086223;28;20439;-83
2021/12/14 11:23:40;;;;;;;58.80;26.73;;;8.80;99.90;;;;;;5061557;28;20044;-83
2021/12/14 11:26:11;;;;;;;51.53;25.90;;;8.80;99.90;;;;;;5018890;28;20101;-83
2021/12/14 11:28:47;;;;;;;50.13;24.37;;;8.80;99.90;;;;;;5063620;28;20412;-83
2021/12/14 11:31:31;;;;;;;54.17;24.85;;;8.80;99.90;;;;;;5085281;28;20071;-83
2021/12/14 11:34:01;;;;;;;54.30;24.15;;;8.80;99.90;;;;;;5087797;28;20050;-83
2021/12/14 11:36:37;;;;;;;47.17;24.30;;;9.60;99.90;;;;;;5071638;28;20048;-83
2021/12/14 11:39:24;;;;;;;49.70;23.83;;;8.90;99.90;;;;;;5082232;28;20149;-83
2021/12/14 11:41:58;;;;;;;50.70;24.60;;;8.90;99.90;;;;;;5074777;28;20051;-84
2021/12/14 11:44:26;;;;;;;45.72;23.00;;;8.90;99.90;;;;;;5072367;28;20055;-84
2021/12/14 11:50:02;;;;;;;51.13;23.20;;;8.90;99.90;;;;;;5079377;28;20052;-83
2021/12/14 11:52:40;;;;;;;44.47;21.80;;;8.90;99.90;;;;;;5073154;28;20066;-83
2021/12/14 11:55:48;;;;;;;43.90;22.15;;;8.90;99.90;;;;;;5066939;28;20126;-83
2021/12/14 11:58:19;;;;;;;47.17;20.85;;;8.90;99.90;;;;;;5050073;27;20071;-85
2021/12/14 12:01:26;;;;;;;48.42;22.02;;;8.90;99.90;;;;;;5082700;28;20119;-83
2021/12/14 12:04:11;;;;;;;39.40;19.73;;;8.90;99.90;;;;;;5076492;28;20407;-84
2021/12/14 12:09:30;;;;;;;41.75;19.10;;;8.90;99.90;;;;;;5090995;28;20044;-83
2021/12/14 12:12:05;;;;;;;46.97;19.27;;;8.90;99.90;;;;;;5079754;28;20048;-83
2021/12/14 12:14:55;;;;;;;38.70;18.33;;;8.90;99.90;;;;;;5092010;28;20078;-84
2021/12/14 12:17:23;;;;;;;40.17;18.30;;;8.90;99.90;;;;;;5084059;28;20512;-85
2021/12/14 12:19:59;;;;;;;41.25;18.92;;;8.90;99.90;;;;;;5079822;28;20224;-85
2021/12/14 12:22:31;;;;;;;40.38;18.55;;;9.00;99.90;;;;;;5062809;28;20084;-85
2021/12/14 12:24:58;;;;;;;47.42;20.08;;;9.00;99.90;;;;;;5068354;28;20511;-85
2021/12/14 12:27:30;;;;;;;38.50;18.10;;;9.20;99.90;;;;;;5079375;28;20432;-86
2021/12/14 12:30:15;;;;;;;45.03;18.88;;;9.00;99.90;;;;;;5080411;28;20507;-86
2021/12/14 12:32:42;;;;;;;39.13;17.17;;;9.00;99.90;;;;;;5066301;28;20139;-85
2021/12/14 12:35:49;;;;;;;36.33;16.23;;;9.00;99.90;;;;;;5083692;28;20062;-86
2021/12/14 12:38:26;;;;;;;35.70;16.23;;;9.00;99.90;;;;;;4993370;28;20402;-85
2021/12/14 12:41:13;;;;;;;33.45;15.65;;;9.00;99.90;;;;;;5071312;28;20097;-86
2021/12/14 12:43:49;;;;;;;39.03;16.65;;;9.10;99.90;;;;;;5078677;28;20047;-85
2021/12/14 12:46:23;;;;;;;33.45;15.93;;;9.10;99.90;;;;;;5071982;28;20105;-86
2021/12/14 12:49:04;;;;;;;35.28;15.93;;;9.10;99.90;;;;;;5073006;28;20752;-86
2021/12/14 12:51:42;;;;;;;33.35;15.02;;;9.20;99.90;;;;;;5098010;28;20076;-86
2021/12/14 12:54:37;;;;;;;32.15;14.50;;;9.10;99.90;;;;;;5072572;28;20503;-86
2021/12/14 12:57:29;;;;;;;33.00;15.20;;;9.10;99.90;;;;;;5092801;28;20082;-86
2021/12/14 13:00:16;;;;;;;29.25;14.00;;;9.10;99.90;;;;;;5066412;28;20130;-85
2021/12/14 13:03:00;;;;;;;31.25;14.20;;;9.20;99.90;;;;;;5083848;28;20056;-86
2021/12/14 13:05:35;;;;;;;31.15;14.25;;;9.10;99.90;;;;;;5076020;28;20653;-85
2021/12/14 13:08:03;;;;;;;32.05;14.77;;;9.20;99.90;;;;;;5076469;28;20424;-85
2021/12/14 13:10:37;;;;;;;30.42;14.30;;;9.20;99.90;;;;;;5067724;28;20040;-85
2021/12/14 13:13:23;;;;;;;29.10;13.45;;;9.20;99.90;;;;;;5085470;28;20043;-87
2021/12/14 13:15:56;;;;;;;25.95;12.90;;;9.20;99.90;;;;;;5098152;28;20044;-87
2021/12/14 13:18:35;;;;;;;28.27;13.27;;;9.20;99.90;;;;;;5080368;28;20363;-87
2021/12/14 13:21:07;;;;;;;26.80;13.02;;;9.20;99.90;;;;;;5083285;28;20067;-87
2021/12/14 13:24:00;;;;;;;26.20;12.63;;;9.20;99.90;;;;;;5083061;28;20132;-87
2021/12/14 13:26:31;;;;;;;27.98;13.98;;;9.20;99.90;;;;;;5089460;28;20639;-86
2021/12/14 13:29:15;;;;;;;28.65;12.90;;;9.20;99.90;;;;;;5065239;28;20439;-87
2021/12/14 13:32:03;;;;;;;29.27;14.50;;;9.20;99.90;;;;;;5083539;28;20050;-86
2021/12/14 13:34:43;;;;;;;32.80;15.02;;;9.20;99.90;;;;;;5080117;28;20055;-86
2021/12/14 13:37:12;;;;;;;31.92;15.60;;;9.20;99.90;;;;;;5084972;28;20055;-86
2021/12/14 13:39:39;;;;;;;36.60;15.60;;;9.20;99.90;;;;;;5073977;28;20051;-86
2021/12/14 13:42:07;;;;;;;38.20;16.70;;;9.20;99.90;;;;;;5068513;28;20075;-86
2021/12/14 13:44:44;;;;;;;37.28;16.80;;;9.10;99.90;;;;;;5070670;28;20408;-85